sensor_id;sensor_type;location;lat;lon;timestamp;P1;durP1;ratioP1;P2;durP2;ratioP2
18090;SDS011;9172;49.948;9.208;2023-01-01T00:01:13;6.53;;;2.60;;
18090;SDS011;9172;49.948;9.208;2023-01-01T00:03:42;4.73;;;2.70;;
18090;SDS011;9172;49.948;9.208;2023-01-01T00:06:12;5.10;;;2.50;;
18090;SDS011;9172;49.948;9.208;2023-01-01T00:08:43;6.23;;;2.77;;
18090;SDS011;9172;49.948;9.208;2023-01-01T00:11:14;3.63;;;2.20;;
18090;SDS011;9172;49.948;9.208;2023-01-01T00:13:44;4.93;;;2.73;;
18090;SDS011;9172;49.948;9.208;2023-01-01T00:16:12;6.70;;;2.70;;
18090;SDS011;9172;49.948;9.208;2023-01-01T00:18:41;7.40;;;3.23;;
18090;SDS011;9172;49.948;9.208;2023-01-01T00:21:10;4.23;;;2.67;;
18090;SDS011;9172;49.948;9.208;2023-01-01T00:23:40;6.03;;;2.80;;
18090;SDS011;9172;49.948;9.208;2023-01-01T00:26:10;9.33;;;2.73;;
18090;SDS011;9172;49.948;9.208;2023-01-01T00:28:40;5.80;;;2.60;;
18090;SDS011;9172;49.948;9.208;2023-01-01T00:31:16;4.57;;;2.50;;
18090;SDS011;9172;49.948;9.208;2023-01-01T00:36:38;7.50;;;2.97;;
18090;SDS011;9172;49.948;9.208;2023-01-01T00:39:15;5.73;;;3.03;;
18090;SDS011;9172;49.948;9.208;2023-01-01T00:41:45;7.43;;;3.23;;
18090;SDS011;9172;49.948;9.208;2023-01-01T00:44:14;6.83;;;3.33;;
18090;SDS011;9172;49.948;9.208;2023-01-01T00:46:42;8.50;;;3.90;;
18090;SDS011;9172;49.948;9.208;2023-01-01T00:49:15;10.43;;;4.37;;
18090;SDS011;9172;49.948;9.208;2023-01-01T00:51:46;11.53;;;4.90;;
18090;SDS011;9172;49.948;9.208;2023-01-01T00:54:19;10.90;;;5.40;;
18090;SDS011;9172;49.948;9.208;2023-01-01T00:56:48;9.90;;;4.80;;
18090;SDS011;9172;49.948;9.208;2023-01-01T00:59:17;7.77;;;3.73;;
18090;SDS011;9172;49.948;9.208;2023-01-01T01:01:49;11.13;;;3.97;;
18090;SDS011;9172;49.948;9.208;2023-01-01T01:04:33;7.97;;;3.63;;
18090;SDS011;9172;49.948;9.208;2023-01-01T01:07:05;6.33;;;3.57;;
18090;SDS011;9172;49.948;9.208;2023-01-01T01:09:37;6.83;;;3.50;;
18090;SDS011;9172;49.948;9.208;2023-01-01T01:12:10;4.20;;;2.60;;
18090;SDS011;9172;49.948;9.208;2023-01-01T01:14:42;5.03;;;3.07;;
18090;SDS011;9172;49.948;9.208;2023-01-01T01:17:17;3.90;;;2.50;;
18090;SDS011;9172;49.948;9.208;2023-01-01T01:19:45;6.93;;;2.67;;
18090;SDS011;9172;49.948;9.208;2023-01-01T01:22:14;6.10;;;2.97;;
18090;SDS011;9172;49.948;9.208;2023-01-01T01:24:42;6.80;;;3.40;;
18090;SDS011;9172;49.948;9.208;2023-01-01T01:27:12;5.43;;;2.70;;
18090;SDS011;9172;49.948;9.208;2023-01-01T01:29:40;4.47;;;2.70;;
18090;SDS011;9172;49.948;9.208;2023-01-01T01:32:09;5.70;;;2.93;;
18090;SDS011;9172;49.948;9.208;2023-01-01T01:34:38;5.07;;;2.80;;
18090;SDS011;9172;49.948;9.208;2023-01-01T01:37:08;5.80;;;3.10;;
18090;SDS011;9172;49.948;9.208;2023-01-01T01:39:37;9.27;;;3.40;;
18090;SDS011;9172;49.948;9.208;2023-01-01T01:42:10;5.40;;;3.30;;
18090;SDS011;9172;49.948;9.208;2023-01-01T01:44:48;9.50;;;3.53;;
18090;SDS011;9172;49.948;9.208;2023-01-01T01:47:21;9.33;;;3.23;;
18090;SDS011;9172;49.948;9.208;2023-01-01T01:49:56;8.47;;;3.03;;
18090;SDS011;9172;49.948;9.208;2023-01-01T01:52:35;6.60;;;3.17;;
18090;SDS011;9172;49.948;9.208;2023-01-01T01:55:06;6.93;;;3.13;;
18090;SDS011;9172;49.948;9.208;2023-01-01T01:57:37;5.63;;;3.27;;
18090;SDS011;9172;49.948;9.208;2023-01-01T02:00:08;6.27;;;3.23;;
18090;SDS011;9172;49.948;9.208;2023-01-01T02:02:41;4.10;;;2.87;;
18090;SDS011;9172;49.948;9.208;2023-01-01T02:05:10;6.63;;;3.10;;
18090;SDS011;9172;49.948;9.208;2023-01-01T02:07:39;8.03;;;3.30;;
18090;SDS011;9172;49.948;9.208;2023-01-01T02:10:09;6.20;;;2.97;;
18090;SDS011;9172;49.948;9.208;2023-01-01T02:12:37;6.60;;;3.50;;
18090;SDS011;9172;49.948;9.208;2023-01-01T02:15:07;6.07;;;3.20;;
18090;SDS011;9172;49.948;9.208;2023-01-01T02:17:39;5.57;;;3.23;;
18090;SDS011;9172;49.948;9.208;2023-01-01T02:20:15;5.80;;;3.10;;
18090;SDS011;9172;49.948;9.208;2023-01-01T02:22:56;4.30;;;2.70;;
18090;SDS011;9172;49.948;9.208;2023-01-01T02:25:55;7.00;;;3.17;;
18090;SDS011;9172;49.948;9.208;2023-01-01T02:31:23;6.70;;;2.80;;
18090;SDS011;9172;49.948;9.208;2023-01-01T02:33:55;6.73;;;3.37;;
18090;SDS011;9172;49.948;9.208;2023-01-01T02:36:25;9.87;;;2.90;;
18090;SDS011;9172;49.948;9.208;2023-01-01T02:38:56;5.03;;;3.00;;
18090;SDS011;9172;49.948;9.208;2023-01-01T02:41:29;5.73;;;2.77;;
18090;SDS011;9172;49.948;9.208;2023-01-01T02:44:06;7.37;;;3.07;;
18090;SDS011;9172;49.948;9.208;2023-01-01T02:46:36;7.37;;;2.73;;
18090;SDS011;9172;49.948;9.208;2023-01-01T02:49:05;7.23;;;2.73;;
18090;SDS011;9172;49.948;9.208;2023-01-01T02:51:34;11.03;;;2.53;;
18090;SDS011;9172;49.948;9.208;2023-01-01T02:54:10;3.90;;;2.10;;
18090;SDS011;9172;49.948;9.208;2023-01-01T02:56:42;7.07;;;2.23;;
18090;SDS011;9172;49.948;9.208;2023-01-01T02:59:18;4.17;;;2.40;;
18090;SDS011;9172;49.948;9.208;2023-01-01T03:05:05;5.00;;;2.13;;
18090;SDS011;9172;49.948;9.208;2023-01-01T03:07:40;4.97;;;2.10;;
18090;SDS011;9172;49.948;9.208;2023-01-01T03:10:09;7.10;;;2.53;;
18090;SDS011;9172;49.948;9.208;2023-01-01T03:12:42;6.37;;;2.40;;
18090;SDS011;9172;49.948;9.208;2023-01-01T03:15:17;6.97;;;2.53;;
18090;SDS011;9172;49.948;9.208;2023-01-01T03:17:49;4.60;;;2.27;;
18090;SDS011;9172;49.948;9.208;2023-01-01T03:20:22;5.43;;;2.40;;
18090;SDS011;9172;49.948;9.208;2023-01-01T03:23:01;6.50;;;2.60;;
18090;SDS011;9172;49.948;9.208;2023-01-01T03:25:32;5.60;;;2.20;;
18090;SDS011;9172;49.948;9.208;2023-01-01T03:28:04;6.43;;;2.90;;
18090;SDS011;9172;49.948;9.208;2023-01-01T03:30:37;5.00;;;2.13;;
18090;SDS011;9172;49.948;9.208;2023-01-01T03:33:10;4.03;;;2.30;;
18090;SDS011;9172;49.948;9.208;2023-01-01T03:35:42;5.17;;;2.80;;
18090;SDS011;9172;49.948;9.208;2023-01-01T03:38:21;8.27;;;2.43;;
18090;SDS011;9172;49.948;9.208;2023-01-01T03:40:45;6.20;;;2.53;;
18090;SDS011;9172;49.948;9.208;2023-01-01T03:43:19;6.50;;;2.90;;
18090;SDS011;9172;49.948;9.208;2023-01-01T03:45:51;4.47;;;2.13;;
18090;SDS011;9172;49.948;9.208;2023-01-01T03:48:21;4.53;;;2.60;;
18090;SDS011;9172;49.948;9.208;2023-01-01T03:50:54;5.10;;;2.70;;
18090;SDS011;9172;49.948;9.208;2023-01-01T03:53:28;4.80;;;2.30;;
18090;SDS011;9172;49.948;9.208;2023-01-01T03:56:02;3.17;;;2.03;;
18090;SDS011;9172;49.948;9.208;2023-01-01T03:58:34;4.37;;;2.43;;
18090;SDS011;9172;49.948;9.208;2023-01-01T04:01:08;8.13;;;3.10;;
18090;SDS011;9172;49.948;9.208;2023-01-01T04:03:37;3.37;;;2.03;;
18090;SDS011;9172;49.948;9.208;2023-01-01T04:06:08;6.57;;;2.70;;
18090;SDS011;9172;49.948;9.208;2023-01-01T04:08:54;3.37;;;1.87;;
18090;SDS011;9172;49.948;9.208;2023-01-01T04:11:25;4.07;;;2.23;;
18090;SDS011;9172;49.948;9.208;2023-01-01T04:14:14;4.87;;;2.20;;
18090;SDS011;9172;49.948;9.208;2023-01-01T04:16:53;3.37;;;2.00;;
18090;SDS011;9172;49.948;9.208;2023-01-01T04:19:24;4.03;;;2.30;;
18090;SDS011;9172;49.948;9.208;2023-01-01T04:21:54;6.70;;;1.93;;
18090;SDS011;9172;49.948;9.208;2023-01-01T04:24:23;3.20;;;1.83;;
18090;SDS011;9172;49.948;9.208;2023-01-01T04:26:52;3.90;;;2.17;;
18090;SDS011;9172;49.948;9.208;2023-01-01T04:29:21;4.07;;;1.80;;
18090;SDS011;9172;49.948;9.208;2023-01-01T04:31:51;4.30;;;1.93;;
18090;SDS011;9172;49.948;9.208;2023-01-01T04:34:19;4.27;;;1.73;;
18090;SDS011;9172;49.948;9.208;2023-01-01T04:36:49;5.67;;;1.93;;
18090;SDS011;9172;49.948;9.208;2023-01-01T04:39:19;5.60;;;2.33;;
18090;SDS011;9172;49.948;9.208;2023-01-01T04:41:47;5.50;;;2.20;;
18090;SDS011;9172;49.948;9.208;2023-01-01T04:44:17;2.10;;;1.50;;
18090;SDS011;9172;49.948;9.208;2023-01-01T04:46:46;6.77;;;1.90;;
18090;SDS011;9172;49.948;9.208;2023-01-01T04:49:16;5.17;;;2.00;;
18090;SDS011;9172;49.948;9.208;2023-01-01T04:51:46;3.43;;;1.90;;
18090;SDS011;9172;49.948;9.208;2023-01-01T04:54:14;6.40;;;1.87;;
18090;SDS011;9172;49.948;9.208;2023-01-01T04:56:44;2.63;;;1.87;;
18090;SDS011;9172;49.948;9.208;2023-01-01T04:59:13;6.03;;;2.17;;
18090;SDS011;9172;49.948;9.208;2023-01-01T05:01:41;5.90;;;2.10;;
18090;SDS011;9172;49.948;9.208;2023-01-01T05:04:12;3.47;;;2.00;;
18090;SDS011;9172;49.948;9.208;2023-01-01T05:06:41;4.37;;;2.30;;
18090;SDS011;9172;49.948;9.208;2023-01-01T05:09:10;9.87;;;3.70;;
18090;SDS011;9172;49.948;9.208;2023-01-01T05:11:39;11.67;;;2.27;;
18090;SDS011;9172;49.948;9.208;2023-01-01T05:14:08;3.97;;;2.10;;
18090;SDS011;9172;49.948;9.208;2023-01-01T05:16:38;5.37;;;2.53;;
18090;SDS011;9172;49.948;9.208;2023-01-01T05:19:09;4.23;;;2.17;;
18090;SDS011;9172;49.948;9.208;2023-01-01T05:21:39;7.90;;;1.67;;
18090;SDS011;9172;49.948;9.208;2023-01-01T05:24:08;3.53;;;2.03;;
18090;SDS011;9172;49.948;9.208;2023-01-01T05:26:39;5.17;;;1.80;;
18090;SDS011;9172;49.948;9.208;2023-01-01T05:29:09;6.67;;;2.13;;
18090;SDS011;9172;49.948;9.208;2023-01-01T05:31:38;4.47;;;2.20;;
18090;SDS011;9172;49.948;9.208;2023-01-01T05:34:08;3.63;;;1.80;;
18090;SDS011;9172;49.948;9.208;2023-01-01T05:36:37;4.60;;;2.20;;
18090;SDS011;9172;49.948;9.208;2023-01-01T05:39:07;3.90;;;2.20;;
18090;SDS011;9172;49.948;9.208;2023-01-01T05:41:37;3.63;;;2.20;;
18090;SDS011;9172;49.948;9.208;2023-01-01T05:44:07;3.37;;;1.93;;
18090;SDS011;9172;49.948;9.208;2023-01-01T05:46:37;4.77;;;2.23;;
18090;SDS011;9172;49.948;9.208;2023-01-01T05:49:08;4.17;;;2.20;;
18090;SDS011;9172;49.948;9.208;2023-01-01T05:51:38;4.43;;;2.30;;
18090;SDS011;9172;49.948;9.208;2023-01-01T05:54:08;5.00;;;2.20;;
18090;SDS011;9172;49.948;9.208;2023-01-01T05:56:37;3.60;;;2.03;;
18090;SDS011;9172;49.948;9.208;2023-01-01T05:59:08;5.40;;;2.27;;
18090;SDS011;9172;49.948;9.208;2023-01-01T06:01:36;5.70;;;2.10;;
18090;SDS011;9172;49.948;9.208;2023-01-01T06:04:05;3.53;;;1.77;;
18090;SDS011;9172;49.948;9.208;2023-01-01T06:06:35;5.47;;;2.40;;
18090;SDS011;9172;49.948;9.208;2023-01-01T06:09:05;3.97;;;2.17;;
18090;SDS011;9172;49.948;9.208;2023-01-01T06:11:34;6.80;;;2.73;;
18090;SDS011;9172;49.948;9.208;2023-01-01T06:14:03;4.50;;;2.07;;
18090;SDS011;9172;49.948;9.208;2023-01-01T06:16:32;4.90;;;2.20;;
18090;SDS011;9172;49.948;9.208;2023-01-01T06:19:02;4.80;;;2.23;;
18090;SDS011;9172;49.948;9.208;2023-01-01T06:21:32;5.90;;;2.30;;
18090;SDS011;9172;49.948;9.208;2023-01-01T06:24:02;8.30;;;2.20;;
18090;SDS011;9172;49.948;9.208;2023-01-01T06:26:32;9.20;;;2.30;;
18090;SDS011;9172;49.948;9.208;2023-01-01T06:29:01;4.30;;;2.37;;
18090;SDS011;9172;49.948;9.208;2023-01-01T06:31:30;3.77;;;2.30;;
18090;SDS011;9172;49.948;9.208;2023-01-01T06:34:00;8.33;;;2.50;;
18090;SDS011;9172;49.948;9.208;2023-01-01T06:36:33;6.50;;;2.20;;
18090;SDS011;9172;49.948;9.208;2023-01-01T06:39:02;5.77;;;1.80;;
18090;SDS011;9172;49.948;9.208;2023-01-01T06:41:31;5.07;;;2.30;;
18090;SDS011;9172;49.948;9.208;2023-01-01T06:44:00;3.53;;;1.60;;
18090;SDS011;9172;49.948;9.208;2023-01-01T06:46:29;5.20;;;2.00;;
18090;SDS011;9172;49.948;9.208;2023-01-01T06:49:00;8.10;;;1.87;;
18090;SDS011;9172;49.948;9.208;2023-01-01T06:51:31;5.60;;;2.23;;
18090;SDS011;9172;49.948;9.208;2023-01-01T06:54:02;8.07;;;2.50;;
18090;SDS011;9172;49.948;9.208;2023-01-01T06:56:32;4.73;;;2.13;;
18090;SDS011;9172;49.948;9.208;2023-01-01T06:59:01;3.30;;;1.77;;
18090;SDS011;9172;49.948;9.208;2023-01-01T07:01:31;4.23;;;2.17;;
18090;SDS011;9172;49.948;9.208;2023-01-01T07:04:02;3.73;;;1.80;;
18090;SDS011;9172;49.948;9.208;2023-01-01T07:06:33;6.67;;;1.83;;
18090;SDS011;9172;49.948;9.208;2023-01-01T07:09:03;3.00;;;1.63;;
18090;SDS011;9172;49.948;9.208;2023-01-01T07:11:34;3.93;;;2.17;;
18090;SDS011;9172;49.948;9.208;2023-01-01T07:14:03;4.10;;;2.03;;
18090;SDS011;9172;49.948;9.208;2023-01-01T07:16:32;2.97;;;1.70;;
18090;SDS011;9172;49.948;9.208;2023-01-01T07:19:00;9.23;;;1.87;;
18090;SDS011;9172;49.948;9.208;2023-01-01T07:21:30;4.03;;;1.80;;
18090;SDS011;9172;49.948;9.208;2023-01-01T07:24:00;4.17;;;1.90;;
18090;SDS011;9172;49.948;9.208;2023-01-01T07:26:31;4.43;;;1.80;;
18090;SDS011;9172;49.948;9.208;2023-01-01T07:29:08;11.33;;;2.53;;
18090;SDS011;9172;49.948;9.208;2023-01-01T07:31:39;4.53;;;2.00;;
18090;SDS011;9172;49.948;9.208;2023-01-01T07:34:10;2.90;;;1.73;;
18090;SDS011;9172;49.948;9.208;2023-01-01T07:36:40;6.27;;;2.13;;
18090;SDS011;9172;49.948;9.208;2023-01-01T07:39:09;4.03;;;1.77;;
18090;SDS011;9172;49.948;9.208;2023-01-01T07:41:38;4.90;;;2.53;;
18090;SDS011;9172;49.948;9.208;2023-01-01T07:44:07;5.00;;;1.90;;
18090;SDS011;9172;49.948;9.208;2023-01-01T07:46:36;3.80;;;1.83;;
18090;SDS011;9172;49.948;9.208;2023-01-01T07:49:06;13.37;;;2.40;;
18090;SDS011;9172;49.948;9.208;2023-01-01T07:51:35;4.03;;;1.43;;
18090;SDS011;9172;49.948;9.208;2023-01-01T07:54:06;4.97;;;1.53;;
18090;SDS011;9172;49.948;9.208;2023-01-01T07:56:34;4.50;;;1.87;;
18090;SDS011;9172;49.948;9.208;2023-01-01T07:59:03;4.40;;;1.70;;
18090;SDS011;9172;49.948;9.208;2023-01-01T08:01:34;3.30;;;1.90;;
18090;SDS011;9172;49.948;9.208;2023-01-01T08:04:03;2.33;;;1.27;;
18090;SDS011;9172;49.948;9.208;2023-01-01T08:06:33;4.83;;;1.77;;
18090;SDS011;9172;49.948;9.208;2023-01-01T08:09:03;2.90;;;1.67;;
18090;SDS011;9172;49.948;9.208;2023-01-01T08:11:32;3.37;;;1.70;;
18090;SDS011;9172;49.948;9.208;2023-01-01T08:14:01;6.93;;;1.83;;
18090;SDS011;9172;49.948;9.208;2023-01-01T08:16:29;6.47;;;2.00;;
18090;SDS011;9172;49.948;9.208;2023-01-01T08:18:59;3.43;;;1.37;;
18090;SDS011;9172;49.948;9.208;2023-01-01T08:21:28;4.87;;;1.70;;
18090;SDS011;9172;49.948;9.208;2023-01-01T08:23:57;11.07;;;2.07;;
18090;SDS011;9172;49.948;9.208;2023-01-01T08:26:27;6.93;;;2.60;;
18090;SDS011;9172;49.948;9.208;2023-01-01T08:28:57;6.47;;;1.80;;
18090;SDS011;9172;49.948;9.208;2023-01-01T08:31:26;3.93;;;2.07;;
18090;SDS011;9172;49.948;9.208;2023-01-01T08:33:57;3.53;;;1.50;;
18090;SDS011;9172;49.948;9.208;2023-01-01T08:36:26;5.27;;;2.10;;
18090;SDS011;9172;49.948;9.208;2023-01-01T08:38:58;7.87;;;1.93;;
18090;SDS011;9172;49.948;9.208;2023-01-01T08:41:32;4.97;;;1.50;;
18090;SDS011;9172;49.948;9.208;2023-01-01T08:44:01;4.83;;;1.87;;
18090;SDS011;9172;49.948;9.208;2023-01-01T08:46:30;6.47;;;1.97;;
18090;SDS011;9172;49.948;9.208;2023-01-01T08:48:59;5.40;;;1.40;;
18090;SDS011;9172;49.948;9.208;2023-01-01T08:51:29;4.43;;;1.60;;
18090;SDS011;9172;49.948;9.208;2023-01-01T08:53:58;6.17;;;1.87;;
18090;SDS011;9172;49.948;9.208;2023-01-01T08:56:26;6.53;;;1.90;;
18090;SDS011;9172;49.948;9.208;2023-01-01T08:58:57;5.13;;;1.60;;
18090;SDS011;9172;49.948;9.208;2023-01-01T09:01:26;2.90;;;1.67;;
18090;SDS011;9172;49.948;9.208;2023-01-01T09:03:57;4.63;;;1.50;;
18090;SDS011;9172;49.948;9.208;2023-01-01T09:06:25;3.20;;;1.30;;
18090;SDS011;9172;49.948;9.208;2023-01-01T09:08:55;3.17;;;1.30;;
18090;SDS011;9172;49.948;9.208;2023-01-01T09:11:25;5.20;;;1.70;;
18090;SDS011;9172;49.948;9.208;2023-01-01T09:13:54;5.60;;;1.70;;
18090;SDS011;9172;49.948;9.208;2023-01-01T09:16:23;4.23;;;1.33;;
18090;SDS011;9172;49.948;9.208;2023-01-01T09:18:52;2.30;;;1.40;;
18090;SDS011;9172;49.948;9.208;2023-01-01T09:21:21;7.03;;;2.00;;
18090;SDS011;9172;49.948;9.208;2023-01-01T09:23:50;4.77;;;1.97;;
18090;SDS011;9172;49.948;9.208;2023-01-01T09:26:21;6.07;;;1.60;;
18090;SDS011;9172;49.948;9.208;2023-01-01T09:28:50;3.73;;;1.60;;
18090;SDS011;9172;49.948;9.208;2023-01-01T09:31:19;7.33;;;1.60;;
18090;SDS011;9172;49.948;9.208;2023-01-01T09:33:47;7.03;;;1.80;;
18090;SDS011;9172;49.948;9.208;2023-01-01T09:36:25;5.83;;;1.60;;
18090;SDS011;9172;49.948;9.208;2023-01-01T09:38:56;6.10;;;1.97;;
18090;SDS011;9172;49.948;9.208;2023-01-01T09:41:34;1.90;;;1.30;;
18090;SDS011;9172;49.948;9.208;2023-01-01T09:44:08;3.27;;;1.50;;
18090;SDS011;9172;49.948;9.208;2023-01-01T09:46:38;5.40;;;1.50;;
18090;SDS011;9172;49.948;9.208;2023-01-01T09:49:10;6.20;;;1.97;;
18090;SDS011;9172;49.948;9.208;2023-01-01T09:51:43;8.77;;;2.10;;
18090;SDS011;9172;49.948;9.208;2023-01-01T09:54:17;3.63;;;1.60;;
18090;SDS011;9172;49.948;9.208;2023-01-01T09:56:47;2.93;;;1.50;;
18090;SDS011;9172;49.948;9.208;2023-01-01T09:59:21;4.93;;;1.80;;
18090;SDS011;9172;49.948;9.208;2023-01-01T10:01:52;4.17;;;1.50;;
18090;SDS011;9172;49.948;9.208;2023-01-01T10:04:25;5.60;;;1.70;;
18090;SDS011;9172;49.948;9.208;2023-01-01T10:06:59;6.13;;;1.87;;
18090;SDS011;9172;49.948;9.208;2023-01-01T10:09:32;4.97;;;1.97;;
18090;SDS011;9172;49.948;9.208;2023-01-01T10:12:05;4.27;;;1.63;;
18090;SDS011;9172;49.948;9.208;2023-01-01T10:14:36;9.53;;;1.90;;
18090;SDS011;9172;49.948;9.208;2023-01-01T10:17:09;8.33;;;1.73;;
18090;SDS011;9172;49.948;9.208;2023-01-01T10:19:41;5.23;;;1.77;;
18090;SDS011;9172;49.948;9.208;2023-01-01T10:22:14;4.30;;;1.60;;
18090;SDS011;9172;49.948;9.208;2023-01-01T10:24:46;3.43;;;1.93;;
18090;SDS011;9172;49.948;9.208;2023-01-01T10:27:22;4.43;;;1.53;;
18090;SDS011;9172;49.948;9.208;2023-01-01T10:29:54;9.80;;;1.90;;
18090;SDS011;9172;49.948;9.208;2023-01-01T10:32:27;8.17;;;1.73;;
18090;SDS011;9172;49.948;9.208;2023-01-01T10:34:58;6.17;;;1.67;;
18090;SDS011;9172;49.948;9.208;2023-01-01T10:37:29;8.87;;;2.30;;
18090;SDS011;9172;49.948;9.208;2023-01-01T10:40:02;4.23;;;1.80;;
18090;SDS011;9172;49.948;9.208;2023-01-01T10:42:34;3.50;;;1.73;;
18090;SDS011;9172;49.948;9.208;2023-01-01T10:45:11;4.60;;;1.57;;
18090;SDS011;9172;49.948;9.208;2023-01-01T10:50:40;4.83;;;1.83;;
18090;SDS011;9172;49.948;9.208;2023-01-01T10:55:57;5.47;;;1.27;;
18090;SDS011;9172;49.948;9.208;2023-01-01T10:58:36;6.03;;;1.73;;
18090;SDS011;9172;49.948;9.208;2023-01-01T11:01:10;5.20;;;1.90;;
18090;SDS011;9172;49.948;9.208;2023-01-01T11:03:54;5.63;;;1.93;;
18090;SDS011;9172;49.948;9.208;2023-01-01T11:06:35;5.17;;;1.90;;
18090;SDS011;9172;49.948;9.208;2023-01-01T11:09:05;4.87;;;1.23;;
18090;SDS011;9172;49.948;9.208;2023-01-01T11:11:56;4.57;;;1.50;;
18090;SDS011;9172;49.948;9.208;2023-01-01T11:14:27;6.83;;;1.67;;
18090;SDS011;9172;49.948;9.208;2023-01-01T11:16:57;4.13;;;1.43;;
18090;SDS011;9172;49.948;9.208;2023-01-01T11:22:03;9.57;;;2.30;;
18090;SDS011;9172;49.948;9.208;2023-01-01T11:24:33;5.60;;;1.40;;
18090;SDS011;9172;49.948;9.208;2023-01-01T11:27:12;5.60;;;1.67;;
18090;SDS011;9172;49.948;9.208;2023-01-01T11:29:46;3.53;;;1.60;;
18090;SDS011;9172;49.948;9.208;2023-01-01T11:32:17;10.33;;;1.80;;
18090;SDS011;9172;49.948;9.208;2023-01-01T11:34:53;3.70;;;1.43;;
18090;SDS011;9172;49.948;9.208;2023-01-01T11:37:23;4.60;;;1.57;;
18090;SDS011;9172;49.948;9.208;2023-01-01T11:40:00;3.47;;;1.87;;
18090;SDS011;9172;49.948;9.208;2023-01-01T11:42:31;7.53;;;1.47;;
18090;SDS011;9172;49.948;9.208;2023-01-01T11:45:02;11.50;;;1.77;;
18090;SDS011;9172;49.948;9.208;2023-01-01T11:47:35;4.10;;;1.87;;
18090;SDS011;9172;49.948;9.208;2023-01-01T11:50:12;7.90;;;1.73;;
18090;SDS011;9172;49.948;9.208;2023-01-01T11:52:40;6.93;;;1.83;;
18090;SDS011;9172;49.948;9.208;2023-01-01T11:55:13;5.90;;;1.97;;
18090;SDS011;9172;49.948;9.208;2023-01-01T11:57:49;4.47;;;1.23;;
18090;SDS011;9172;49.948;9.208;2023-01-01T12:00:22;8.93;;;1.70;;
18090;SDS011;9172;49.948;9.208;2023-01-01T12:02:53;7.07;;;1.40;;
18090;SDS011;9172;49.948;9.208;2023-01-01T12:05:23;3.27;;;1.50;;
18090;SDS011;9172;49.948;9.208;2023-01-01T12:07:54;3.07;;;1.27;;
18090;SDS011;9172;49.948;9.208;2023-01-01T12:10:27;4.63;;;1.47;;
18090;SDS011;9172;49.948;9.208;2023-01-01T12:12:59;3.67;;;1.87;;
18090;SDS011;9172;49.948;9.208;2023-01-01T12:15:32;12.03;;;2.43;;
18090;SDS011;9172;49.948;9.208;2023-01-01T12:18:03;12.23;;;1.70;;
18090;SDS011;9172;49.948;9.208;2023-01-01T12:20:35;6.93;;;1.87;;
18090;SDS011;9172;49.948;9.208;2023-01-01T12:23:07;9.30;;;2.00;;
18090;SDS011;9172;49.948;9.208;2023-01-01T12:25:38;5.93;;;1.30;;
18090;SDS011;9172;49.948;9.208;2023-01-01T12:28:14;10.47;;;1.50;;
18090;SDS011;9172;49.948;9.208;2023-01-01T12:31:01;6.57;;;2.30;;
18090;SDS011;9172;49.948;9.208;2023-01-01T12:33:38;14.20;;;2.20;;
18090;SDS011;9172;49.948;9.208;2023-01-01T12:36:17;10.80;;;1.90;;
18090;SDS011;9172;49.948;9.208;2023-01-01T12:42:11;6.57;;;2.33;;
18090;SDS011;9172;49.948;9.208;2023-01-01T12:44:53;6.63;;;1.97;;
18090;SDS011;9172;49.948;9.208;2023-01-01T12:47:30;6.23;;;1.93;;
18090;SDS011;9172;49.948;9.208;2023-01-01T12:50:06;3.67;;;1.93;;
18090;SDS011;9172;49.948;9.208;2023-01-01T12:52:40;9.17;;;1.70;;
18090;SDS011;9172;49.948;9.208;2023-01-01T12:58:28;4.63;;;1.90;;
18090;SDS011;9172;49.948;9.208;2023-01-01T13:01:00;8.87;;;2.07;;
18090;SDS011;9172;49.948;9.208;2023-01-01T13:03:33;8.30;;;1.80;;
18090;SDS011;9172;49.948;9.208;2023-01-01T13:06:05;8.07;;;2.00;;
18090;SDS011;9172;49.948;9.208;2023-01-01T13:08:37;8.10;;;1.90;;
18090;SDS011;9172;49.948;9.208;2023-01-01T13:11:08;8.27;;;1.80;;
18090;SDS011;9172;49.948;9.208;2023-01-01T13:13:40;5.90;;;1.77;;
18090;SDS011;9172;49.948;9.208;2023-01-01T13:16:09;4.77;;;1.80;;
18090;SDS011;9172;49.948;9.208;2023-01-01T13:18:39;9.57;;;2.33;;
18090;SDS011;9172;49.948;9.208;2023-01-01T13:21:19;6.87;;;1.90;;
18090;SDS011;9172;49.948;9.208;2023-01-01T13:23:51;5.23;;;1.40;;
18090;SDS011;9172;49.948;9.208;2023-01-01T13:26:38;8.83;;;1.80;;
18090;SDS011;9172;49.948;9.208;2023-01-01T13:32:08;5.53;;;1.67;;
18090;SDS011;9172;49.948;9.208;2023-01-01T13:37:43;6.80;;;2.03;;
18090;SDS011;9172;49.948;9.208;2023-01-01T13:40:31;5.93;;;1.77;;
18090;SDS011;9172;49.948;9.208;2023-01-01T13:46:17;5.93;;;1.73;;
18090;SDS011;9172;49.948;9.208;2023-01-01T13:49:00;6.13;;;1.80;;
18090;SDS011;9172;49.948;9.208;2023-01-01T13:51:40;6.83;;;1.87;;
18090;SDS011;9172;49.948;9.208;2023-01-01T13:54:23;2.57;;;1.67;;
18090;SDS011;9172;49.948;9.208;2023-01-01T13:57:15;6.17;;;1.50;;
18090;SDS011;9172;49.948;9.208;2023-01-01T13:59:52;8.33;;;1.87;;
18090;SDS011;9172;49.948;9.208;2023-01-01T14:02:27;3.07;;;1.50;;
18090;SDS011;9172;49.948;9.208;2023-01-01T14:07:39;5.03;;;1.70;;
18090;SDS011;9172;49.948;9.208;2023-01-01T14:10:18;2.70;;;1.47;;
18090;SDS011;9172;49.948;9.208;2023-01-01T14:12:49;6.53;;;1.83;;
18090;SDS011;9172;49.948;9.208;2023-01-01T14:15:23;4.47;;;1.53;;
18090;SDS011;9172;49.948;9.208;2023-01-01T14:17:55;9.07;;;2.70;;
18090;SDS011;9172;49.948;9.208;2023-01-01T14:20:29;9.43;;;2.27;;
18090;SDS011;9172;49.948;9.208;2023-01-01T14:23:04;7.80;;;1.97;;
18090;SDS011;9172;49.948;9.208;2023-01-01T14:25:50;6.57;;;2.03;;
18090;SDS011;9172;49.948;9.208;2023-01-01T14:28:23;5.47;;;2.00;;
18090;SDS011;9172;49.948;9.208;2023-01-01T14:30:53;7.50;;;1.80;;
18090;SDS011;9172;49.948;9.208;2023-01-01T14:33:24;6.90;;;1.70;;
18090;SDS011;9172;49.948;9.208;2023-01-01T14:35:57;10.10;;;2.40;;
18090;SDS011;9172;49.948;9.208;2023-01-01T14:38:28;6.13;;;2.40;;
18090;SDS011;9172;49.948;9.208;2023-01-01T14:41:02;6.40;;;1.77;;
18090;SDS011;9172;49.948;9.208;2023-01-01T14:43:35;3.80;;;1.83;;
18090;SDS011;9172;49.948;9.208;2023-01-01T14:46:05;6.50;;;2.13;;
18090;SDS011;9172;49.948;9.208;2023-01-01T14:48:36;7.10;;;2.07;;
18090;SDS011;9172;49.948;9.208;2023-01-01T14:51:10;7.33;;;2.80;;
18090;SDS011;9172;49.948;9.208;2023-01-01T14:53:41;11.63;;;3.90;;
18090;SDS011;9172;49.948;9.208;2023-01-01T14:56:20;13.80;;;3.47;;
18090;SDS011;9172;49.948;9.208;2023-01-01T14:58:50;6.70;;;2.00;;
18090;SDS011;9172;49.948;9.208;2023-01-01T15:01:24;8.30;;;2.20;;
18090;SDS011;9172;49.948;9.208;2023-01-01T15:03:56;9.10;;;2.50;;
18090;SDS011;9172;49.948;9.208;2023-01-01T15:06:27;9.83;;;2.50;;
18090;SDS011;9172;49.948;9.208;2023-01-01T15:08:57;9.87;;;2.83;;
18090;SDS011;9172;49.948;9.208;2023-01-01T15:11:26;5.17;;;2.17;;
18090;SDS011;9172;49.948;9.208;2023-01-01T15:13:57;8.00;;;2.47;;
18090;SDS011;9172;49.948;9.208;2023-01-01T15:16:27;4.57;;;2.37;;
18090;SDS011;9172;49.948;9.208;2023-01-01T15:18:57;13.27;;;3.03;;
18090;SDS011;9172;49.948;9.208;2023-01-01T15:21:36;14.60;;;4.50;;
18090;SDS011;9172;49.948;9.208;2023-01-01T15:24:10;6.80;;;3.40;;
18090;SDS011;9172;49.948;9.208;2023-01-01T15:26:41;8.13;;;2.40;;
18090;SDS011;9172;49.948;9.208;2023-01-01T15:29:14;6.43;;;2.53;;
18090;SDS011;9172;49.948;9.208;2023-01-01T15:31:47;8.53;;;2.27;;
18090;SDS011;9172;49.948;9.208;2023-01-01T15:34:19;10.53;;;2.30;;
18090;SDS011;9172;49.948;9.208;2023-01-01T15:36:52;6.20;;;2.13;;
18090;SDS011;9172;49.948;9.208;2023-01-01T15:39:23;5.43;;;2.50;;
18090;SDS011;9172;49.948;9.208;2023-01-01T15:41:54;5.13;;;2.17;;
18090;SDS011;9172;49.948;9.208;2023-01-01T15:44:27;9.43;;;2.50;;
18090;SDS011;9172;49.948;9.208;2023-01-01T15:47:08;11.37;;;2.87;;
18090;SDS011;9172;49.948;9.208;2023-01-01T15:49:39;6.03;;;2.63;;
18090;SDS011;9172;49.948;9.208;2023-01-01T15:52:14;13.20;;;2.10;;
18090;SDS011;9172;49.948;9.208;2023-01-01T15:54:45;5.27;;;1.90;;
18090;SDS011;9172;49.948;9.208;2023-01-01T15:57:15;5.33;;;1.90;;
18090;SDS011;9172;49.948;9.208;2023-01-01T15:59:46;10.13;;;2.47;;
18090;SDS011;9172;49.948;9.208;2023-01-01T16:02:19;8.40;;;2.03;;
18090;SDS011;9172;49.948;9.208;2023-01-01T16:04:51;8.33;;;2.17;;